Time;durP1;ratioP1;P1;durP2;ratioP2;P2;SDS_P1;SDS_P2;PMS_P1;PMS_P2;Temp;Humidity;BMP_temperature;BMP_pressure;BME280_temperature;BME280_humidity;BME280_pressure;Samples;Min_cycle;Max_cycle;Signal;HPM_P1;HPM_P2
2021/09/25 00:04:51;;;;;;;4.50;4.10;;;17.90;80.20;;;;;;10492159;28;20592;-61
2021/09/25 00:10:15;;;;;;;6.20;4.17;;;17.90;80.20;;;;;;10492019;28;20252;-62
2021/09/25 00:15:37;;;;;;;4.43;4.03;;;17.90;80.00;;;;;;10467633;28;20203;-61
2021/09/25 00:21:01;;;;;;;4.17;3.77;;;17.90;80.20;;;;;;10450830;28;20686;-61
2021/09/25 00:26:26;;;;;;;4.80;4.30;;;17.90;80.10;;;;;;10449571;28;20196;-63
2021/09/25 00:31:48;;;;;;;4.97;4.57;;;17.90;80.20;;;;;;10456267;28;20239;-63
2021/09/25 00:37:12;;;;;;;4.43;4.00;;;17.90;80.30;;;;;;10488837;28;20200;-62
2021/09/25 00:42:34;;;;;;;4.97;4.40;;;17.90;80.30;;;;;;10489903;28;20215;-63
2021/09/25 00:47:56;;;;;;;4.33;3.93;;;17.90;80.20;;;;;;10500425;28;20219;-63
2021/09/25 00:53:20;;;;;;;4.53;4.13;;;18.00;80.20;;;;;;10490676;28;20678;-63
2021/09/25 00:58:43;;;;;;;4.60;4.20;;;17.90;80.30;;;;;;10491237;28;20653;-62
2021/09/25 01:04:05;;;;;;;4.20;3.53;;;17.90;80.40;;;;;;10489369;28;20557;-63
2021/09/25 01:09:29;;;;;;;4.17;3.77;;;18.00;81.00;;;;;;10491053;28;20219;-63
2021/09/25 01:14:51;;;;;;;6.13;4.67;;;17.90;80.40;;;;;;10473630;28;20189;-63
2021/09/25 01:20:14;;;;;;;4.20;3.80;;;17.90;80.40;;;;;;10448457;28;20213;-63
2021/09/25 01:25:38;;;;;;;3.50;3.20;;;17.90;80.50;;;;;;10449772;28;20562;-62
2021/09/25 01:31:00;;;;;;;5.33;4.60;;;17.90;80.50;;;;;;10455739;28;20725;-63
2021/09/25 01:36:22;;;;;;;4.50;3.87;;;18.00;80.50;;;;;;10455867;28;20204;-62
2021/09/25 01:41:46;;;;;;;4.50;4.10;;;17.90;80.50;;;;;;10455209;28;20217;-63
2021/09/25 01:47:08;;;;;;;4.10;3.70;;;17.90;80.60;;;;;;10454318;28;20705;-62
2021/09/25 01:52:31;;;;;;;4.27;3.87;;;17.90;80.60;;;;;;10475204;28;20209;-63
2021/09/25 01:57:54;;;;;;;4.57;3.50;;;18.00;80.50;;;;;;10455260;28;20193;-62
2021/09/25 02:03:16;;;;;;;4.60;4.10;;;17.90;80.50;;;;;;10454860;28;20224;-62
2021/09/25 02:08:40;;;;;;;4.27;3.73;;;17.90;80.60;;;;;;10455085;28;20701;-62
2021/09/25 02:14:03;;;;;;;4.50;3.50;;;17.90;80.50;;;;;;10454337;28;20284;-63
2021/09/25 02:19:25;;;;;;;4.23;3.70;;;17.90;80.50;;;;;;10453876;28;20213;-63
2021/09/25 02:24:48;;;;;;;3.57;3.27;;;17.90;80.50;;;;;;10453735;28;20205;-62
2021/09/25 02:30:15;;;;;;;4.30;3.47;;;17.90;80.40;;;;;;10452912;28;20592;-63
2021/09/25 02:35:37;;;;;;;3.80;3.50;;;17.90;80.50;;;;;;10453751;28;20189;-63
2021/09/25 02:40:59;;;;;;;3.10;2.80;;;17.90;80.40;;;;;;10461837;28;20664;-63
2021/09/25 02:46:23;;;;;;;3.33;3.03;;;17.90;80.50;;;;;;10491800;28;20196;-63
2021/09/25 02:51:45;;;;;;;3.23;2.93;;;17.90;80.60;;;;;;10493935;28;20216;-63
2021/09/25 02:57:07;;;;;;;4.87;3.37;;;17.90;80.50;;;;;;10494359;28;20215;-63
2021/09/25 03:02:31;;;;;;;3.43;3.13;;;17.90;80.40;;;;;;10493006;28;20222;-63
2021/09/25 03:07:53;;;;;;;3.30;2.90;;;17.90;80.60;;;;;;10494454;28;20204;-63
2021/09/25 03:13:15;;;;;;;4.23;3.77;;;17.90;80.70;;;;;;10493767;28;20209;-63
2021/09/25 03:18:39;;;;;;;3.00;2.70;;;17.90;80.70;;;;;;10494588;28;20189;-62
2021/09/25 03:24:01;;;;;;;3.03;2.83;;;17.90;80.70;;;;;;10492862;28;20211;-63
2021/09/25 03:29:23;;;;;;;3.97;2.90;;;17.90;80.70;;;;;;10517768;22;20216;-69
2021/09/25 03:34:46;;;;;;;3.27;3.00;;;17.90;80.80;;;;;;10536296;28;20196;-67
2021/09/25 03:40:10;;;;;;;4.00;3.17;;;17.90;80.80;;;;;;10519725;28;20216;-69
2021/09/25 03:45:32;;;;;;;3.50;3.20;;;18.00;80.90;;;;;;10510645;28;20610;-68
2021/09/25 03:50:55;;;;;;;3.57;3.20;;;17.90;80.80;;;;;;10533953;28;20293;-68
2021/09/25 03:56:17;;;;;;;3.27;2.97;;;17.90;80.90;;;;;;10533107;28;20192;-69
2021/09/25 04:01:40;;;;;;;3.73;3.20;;;17.90;80.90;;;;;;10534700;28;20192;-69
2021/09/25 04:07:04;;;;;;;3.50;3.20;;;17.90;80.80;;;;;;10534410;28;20216;-69
2021/09/25 04:12:26;;;;;;;3.33;3.03;;;17.90;80.90;;;;;;10534151;28;20772;-68
2021/09/25 04:17:48;;;;;;;3.53;3.17;;;17.90;80.80;;;;;;10528119;28;20590;-68
2021/09/25 04:23:11;;;;;;;3.03;2.83;;;17.90;80.70;;;;;;10529867;28;20659;-68
2021/09/25 04:28:33;;;;;;;3.63;2.50;;;17.90;80.70;;;;;;10534955;28;20360;-69
2021/09/25 04:33:55;;;;;;;2.73;2.50;;;17.90;80.70;;;;;;10534747;28;20199;-68
2021/09/25 04:39:19;;;;;;;2.80;2.60;;;17.90;80.80;;;;;;10534663;28;20717;-69
2021/09/25 04:44:41;;;;;;;3.27;2.80;;;17.90;80.90;;;;;;10534058;28;20604;-68
2021/09/25 04:50:03;;;;;;;2.93;2.60;;;18.00;80.90;;;;;;10521366;28;20240;-68
2021/09/25 04:55:27;;;;;;;3.57;3.00;;;17.90;80.90;;;;;;10524711;28;20199;-68
2021/09/25 05:00:49;;;;;;;3.17;2.63;;;17.90;80.90;;;;;;10532554;28;20289;-69
2021/09/25 05:06:11;;;;;;;3.30;3.00;;;18.00;81.00;;;;;;10537946;28;20202;-69
2021/09/25 05:11:35;;;;;;;3.40;3.10;;;17.90;81.00;;;;;;10538598;28;20216;-68
2021/09/25 05:16:57;;;;;;;3.97;3.47;;;17.90;81.00;;;;;;10540053;28;20682;-67
2021/09/25 05:22:19;;;;;;;5.13;2.87;;;17.90;81.00;;;;;;10540165;28;20282;-68
2021/09/25 05:27:43;;;;;;;5.17;3.67;;;17.90;81.00;;;;;;10540788;28;20224;-68
2021/09/25 05:33:07;;;;;;;3.57;2.80;;;17.90;81.10;;;;;;10540965;28;20215;-69
2021/09/25 05:38:29;;;;;;;3.70;3.40;;;17.90;81.10;;;;;;10537904;28;20216;-70
2021/09/25 05:43:55;;;;;;;3.77;3.47;;;17.90;81.10;;;;;;10538596;28;20701;-68
2021/09/25 05:49:17;;;;;;;4.30;3.47;;;17.90;81.20;;;;;;10538934;28;20234;-69
2021/09/25 05:54:39;;;;;;;4.70;3.20;;;17.90;81.20;;;;;;10537216;28;20207;-69
2021/09/25 06:00:03;;;;;;;3.10;2.80;;;17.90;81.20;;;;;;10500855;28;20227;-69
2021/09/25 06:05:26;;;;;;;3.77;3.17;;;17.90;81.20;;;;;;10539045;28;20669;-69
2021/09/25 06:10:48;;;;;;;4.63;3.63;;;17.90;81.10;;;;;;10523223;28;20431;-69
2021/09/25 06:16:11;;;;;;;3.47;3.17;;;18.20;80.30;;;;;;10537715;28;20662;-70
2021/09/25 06:21:34;;;;;;;3.30;3.00;;;18.10;80.70;;;;;;10538214;28;20219;-70
2021/09/25 06:26:56;;;;;;;3.63;3.00;;;18.00;81.00;;;;;;10538334;28;20253;-71
2021/09/25 06:32:19;;;;;;;3.40;3.10;;;17.90;81.20;;;;;;10539029;28;20219;-70
2021/09/25 06:37:42;;;;;;;3.77;3.37;;;17.90;81.30;;;;;;10530057;28;20586;-70
2021/09/25 06:43:04;;;;;;;6.57;4.85;;;17.90;81.50;;;;;;10536088;28;20957;-71
2021/09/25 06:48:27;;;;;;;7.88;5.30;;;18.00;81.60;;;;;;10534268;28;20765;-62
2021/09/25 06:53:50;;;;;;;5.87;4.60;;;18.50;79.70;;;;;;10528183;28;20574;-63
2021/09/25 06:59:12;;;;;;;5.73;5.13;;;18.20;80.50;;;;;;10537221;28;20215;-59
2021/09/25 07:04:36;;;;;;;6.50;4.90;;;18.10;81.30;;;;;;10540102;28;20226;-60
2021/09/25 07:09:58;;;;;;;7.03;4.63;;;18.10;81.40;;;;;;10534820;28;20257;-60
2021/09/25 07:15:20;;;;;;;5.23;3.90;;;18.00;81.80;;;;;;10533778;28;20202;-59
2021/09/25 07:20:44;;;;;;;4.97;4.40;;;18.00;81.90;;;;;;10534105;28;20219;-58
2021/09/25 07:26:06;;;;;;;4.80;4.07;;;17.90;81.90;;;;;;10535229;28;20187;-61
2021/09/25 07:31:28;;;;;;;6.23;4.60;;;17.90;82.00;;;;;;10538357;28;20261;-61
2021/09/25 07:36:52;;;;;;;6.40;4.17;;;17.90;82.10;;;;;;10534517;28;20227;-67
2021/09/25 07:42:14;;;;;;;6.57;4.80;;;17.90;82.20;;;;;;10536766;28;20424;-61
2021/09/25 07:47:36;;;;;;;7.20;4.97;;;18.00;82.30;;;;;;10535692;28;20424;-62
2021/09/25 07:52:59;;;;;;;6.57;4.50;;;18.10;81.80;;;;;;10537464;28;20211;-59
2021/09/25 07:58:21;;;;;;;5.30;4.40;;;18.10;82.00;;;;;;10535035;28;20215;-63
2021/09/25 08:03:44;;;;;;;6.43;4.40;;;18.00;82.20;;;;;;10533836;28;20211;-62
2021/09/25 08:09:08;;;;;;;4.63;3.60;;;18.00;82.30;;;;;;10533007;28;20212;-64
2021/09/25 08:14:30;;;;;;;4.50;3.53;;;17.90;82.40;;;;;;10535195;28;20548;-60
2021/09/25 08:19:52;;;;;;;4.90;3.43;;;18.00;82.60;;;;;;10535224;28;20269;-62
2021/09/25 08:25:16;;;;;;;4.33;2.90;;;17.90;82.50;;;;;;10534897;28;20204;-63
2021/09/25 08:30:38;;;;;;;5.27;3.10;;;18.00;82.60;;;;;;10530729;28;20211;-60
2021/09/25 08:36:01;;;;;;;3.80;3.23;;;17.90;82.40;;;;;;10536933;28;20204;-62
2021/09/25 08:41:25;;;;;;;3.77;2.97;;;17.90;82.40;;;;;;10542843;28;20205;-63
2021/09/25 08:46:47;;;;;;;3.17;2.80;;;17.90;82.40;;;;;;10533139;28;20564;-59
2021/09/25 08:52:09;;;;;;;3.10;2.30;;;17.90;82.30;;;;;;10539841;28;20735;-61
2021/09/25 08:57:33;;;;;;;3.57;3.07;;;17.90;82.20;;;;;;10542682;28;20215;-63
2021/09/25 09:02:55;;;;;;;3.93;2.53;;;17.90;82.20;;;;;;10542251;28;20508;-62
2021/09/25 09:08:17;;;;;;;2.57;2.27;;;17.90;82.20;;;;;;10541690;28;20705;-62
2021/09/25 09:13:43;;;;;;;3.40;2.53;;;17.90;82.10;;;;;;10500966;28;20212;-63
2021/09/25 09:19:05;;;;;;;3.10;2.37;;;17.90;82.10;;;;;;10512559;28;20594;-64
2021/09/25 09:24:27;;;;;;;2.33;2.13;;;18.00;82.10;;;;;;10541969;28;20270;-63
2021/09/25 09:30:06;;;;;;;2.67;2.23;;;17.90;82.00;;;;;;10553181;22;20734;-65
2021/09/25 09:35:30;;;;;;;2.80;2.20;;;17.90;81.90;;;;;;10517673;28;20193;-61
2021/09/25 09:40:56;;;;;;;2.57;2.37;;;17.90;82.00;;;;;;10497941;28;20208;-64
2021/09/25 09:46:26;;;;;;;2.60;2.40;;;17.90;82.00;;;;;;10506593;28;20198;-64
2021/09/25 09:51:51;;;;;;;2.40;2.20;;;17.90;82.00;;;;;;10538406;28;20204;-61
2021/09/25 09:57:16;;;;;;;2.40;2.10;;;17.90;81.90;;;;;;10536118;28;20706;-63
2021/09/25 10:02:39;;;;;;;2.77;2.10;;;17.90;81.90;;;;;;10536480;28;20191;-59
2021/09/25 10:08:02;;;;;;;1.87;1.73;;;17.90;81.90;;;;;;10538883;28;20238;-62
2021/09/25 10:13:26;;;;;;;2.30;2.10;;;17.90;81.90;;;;;;10529110;28;20678;-59
2021/09/25 10:18:51;;;;;;;2.57;2.03;;;17.90;81.80;;;;;;10537839;28;20212;-61
2021/09/25 10:24:19;;;;;;;2.00;1.80;;;17.90;81.90;;;;;;10531744;28;20673;-61
2021/09/25 10:29:48;;;;;;;2.20;2.00;;;17.90;81.90;;;;;;10554531;28;20211;-62
2021/09/25 10:35:17;;;;;;;1.83;1.73;;;17.90;81.90;;;;;;10554973;28;20196;-61
2021/09/25 10:40:42;;;;;;;2.53;1.90;;;17.90;81.80;;;;;;10539682;28;20236;-64
2021/09/25 10:46:04;;;;;;;3.50;1.80;;;17.90;81.80;;;;;;10541749;28;20206;-61
2021/09/25 10:51:30;;;;;;;2.33;1.63;;;17.90;81.80;;;;;;10563183;28;20701;-63
2021/09/25 10:56:52;;;;;;;1.87;1.73;;;17.90;81.80;;;;;;10542535;28;20191;-63
2021/09/25 11:02:41;;;;;;;1.70;1.60;;;17.90;81.60;;;;;;10565915;28;20187;-59
2021/09/25 11:08:14;;;;;;;2.00;1.70;;;17.90;81.40;;;;;;10562647;28;20725;-63
2021/09/25 11:14:08;;;;;;;2.90;1.63;;;17.90;81.50;;;;;;10567572;28;20708;-58
2021/09/25 11:19:52;;;;;;;2.70;1.40;;;17.90;81.40;;;;;;10577262;28;20238;-59
2021/09/25 11:25:17;;;;;;;2.03;1.77;;;17.90;81.30;;;;;;10576263;28;20198;-61
2021/09/25 11:30:40;;;;;;;2.93;1.63;;;17.90;81.30;;;;;;10576621;28;20218;-60
2021/09/25 11:36:07;;;;;;;2.53;1.83;;;17.90;81.30;;;;;;10577263;28;20191;-60
2021/09/25 11:41:31;;;;;;;2.87;2.53;;;17.90;81.30;;;;;;10574886;28;20196;-62
2021/09/25 11:46:53;;;;;;;3.43;2.40;;;17.90;81.40;;;;;;10563985;28;20202;-60
2021/09/25 11:52:15;;;;;;;4.20;3.57;;;18.00;81.60;;;;;;10550666;28;20218;-61
2021/09/25 11:57:39;;;;;;;5.87;4.87;;;18.00;81.60;;;;;;10575847;28;20211;-59
2021/09/25 12:03:02;;;;;;;5.23;4.10;;;18.00;81.70;;;;;;10574795;28;20198;-61
2021/09/25 12:08:26;;;;;;;6.83;5.43;;;17.90;81.60;;;;;;10575910;28;20241;-60
2021/09/25 12:13:55;;;;;;;7.27;6.07;;;18.00;81.70;;;;;;10565626;28;20606;-61
2021/09/25 12:19:17;;;;;;;8.63;5.40;;;18.00;81.90;;;;;;10531468;28;20216;-62
2021/09/25 12:24:41;;;;;;;9.73;6.30;;;18.00;81.90;;;;;;10546938;28;20642;-63
2021/09/25 12:30:10;;;;;;;7.93;6.13;;;18.00;81.90;;;;;;10569263;28;20226;-60
2021/09/25 12:35:32;;;;;;;8.03;5.77;;;17.90;81.80;;;;;;10576757;28;20252;-61
2021/09/25 12:40:58;;;;;;;7.30;6.57;;;17.90;81.70;;;;;;10574064;28;20207;-60
2021/09/25 12:46:27;;;;;;;7.93;6.47;;;18.00;81.90;;;;;;10557266;28;20713;-57
2021/09/25 12:51:52;;;;;;;8.43;6.43;;;17.90;81.80;;;;;;10572864;28;20207;-62
2021/09/25 12:57:18;;;;;;;7.37;6.10;;;17.90;81.80;;;;;;10574332;28;20218;-61
2021/09/25 13:02:42;;;;;;;8.33;6.33;;;18.00;81.90;;;;;;10565909;28;20188;-61
2021/09/25 13:08:14;;;;;;;7.13;6.33;;;17.90;81.80;;;;;;10565763;28;20216;-62
2021/09/25 13:13:36;;;;;;;7.00;6.23;;;18.00;82.00;;;;;;10573180;28;20215;-61
2021/09/25 13:19:00;;;;;;;7.03;5.97;;;17.90;81.80;;;;;;10571169;28;20222;-63
2021/09/25 13:24:22;;;;;;;7.17;5.87;;;17.90;81.90;;;;;;10567541;28;20183;-61
2021/09/25 13:29:44;;;;;;;8.00;6.27;;;18.00;82.00;;;;;;10572764;28;20228;-61
2021/09/25 13:35:09;;;;;;;7.47;5.97;;;17.90;81.90;;;;;;10569454;28;20213;-61
2021/09/25 13:40:32;;;;;;;8.57;6.03;;;17.90;81.90;;;;;;10580565;28;20668;-61
2021/09/25 13:45:54;;;;;;;6.10;5.27;;;17.90;81.90;;;;;;10568168;28;20718;-60
2021/09/25 13:51:17;;;;;;;5.77;5.23;;;18.00;82.00;;;;;;10540081;28;20707;-59
2021/09/25 13:56:40;;;;;;;6.13;5.43;;;17.90;82.00;;;;;;10543444;28;20184;-62
2021/09/25 14:02:02;;;;;;;6.57;5.40;;;18.00;82.10;;;;;;10539364;28;20195;-63
2021/09/25 14:07:26;;;;;;;5.87;4.77;;;18.00;82.00;;;;;;10563225;28;20223;-62
2021/09/25 14:12:48;;;;;;;4.73;4.17;;;17.90;82.10;;;;;;10580041;28;20215;-64
2021/09/25 14:18:10;;;;;;;5.60;4.87;;;17.90;82.10;;;;;;10572627;28;20211;-62
2021/09/25 14:23:34;;;;;;;5.33;4.80;;;17.90;82.10;;;;;;10579638;28;20194;-60
2021/09/25 14:28:56;;;;;;;5.30;4.83;;;17.90;82.10;;;;;;10579185;28;20226;-60
2021/09/25 14:34:18;;;;;;;4.83;4.43;;;18.00;82.10;;;;;;10538057;28;20220;-60
2021/09/25 14:39:42;;;;;;;5.50;4.50;;;17.90;82.00;;;;;;10541010;28;20219;-61
2021/09/25 14:45:05;;;;;;;4.27;3.90;;;18.00;82.10;;;;;;10551875;28;20196;-63
2021/09/25 14:50:30;;;;;;;4.37;3.97;;;18.00;82.10;;;;;;10539558;28;20256;-63
2021/09/25 14:55:54;;;;;;;4.90;4.20;;;18.00;82.00;;;;;;10537750;28;20203;-63
2021/09/25 15:01:16;;;;;;;4.10;3.70;;;18.00;82.10;;;;;;10538851;28;20693;-62
2021/09/25 15:06:38;;;;;;;4.00;3.60;;;18.00;82.10;;;;;;10550458;28;20554;-63
2021/09/25 15:12:04;;;;;;;3.43;3.13;;;17.90;82.10;;;;;;10569871;28;20207;-63
2021/09/25 15:17:26;;;;;;;4.13;3.70;;;18.00;82.20;;;;;;10570482;28;20211;-63
2021/09/25 15:22:48;;;;;;;4.97;3.67;;;18.00;82.10;;;;;;10576978;28;20198;-61
2021/09/25 15:28:12;;;;;;;3.83;3.47;;;18.00;82.20;;;;;;10599920;22;20237;-66
2021/09/25 15:33:34;;;;;;;4.03;3.63;;;17.90;82.10;;;;;;10616579;27;20221;-65
2021/09/25 15:38:56;;;;;;;4.17;3.40;;;18.00;82.10;;;;;;10603152;27;20195;-65
2021/09/25 15:44:23;;;;;;;3.73;3.40;;;18.00;82.10;;;;;;10586818;27;20271;-65
2021/09/25 15:49:45;;;;;;;3.80;3.50;;;17.90;82.00;;;;;;10609600;27;20206;-66
2021/09/25 15:55:08;;;;;;;3.93;3.53;;;18.00;81.90;;;;;;10585450;27;20211;-66
2021/09/25 16:00:32;;;;;;;3.43;3.03;;;18.00;82.00;;;;;;10573231;27;20725;-66
2021/09/25 16:05:54;;;;;;;3.70;3.20;;;18.00;82.10;;;;;;10576380;27;20278;-65
2021/09/25 16:11:16;;;;;;;3.77;3.27;;;18.00;82.40;;;;;;10573843;28;20242;-65
2021/09/25 16:16:41;;;;;;;3.37;3.07;;;18.00;82.50;;;;;;10575572;28;20214;-66
2021/09/25 16:22:04;;;;;;;3.37;2.63;;;18.00;82.60;;;;;;10606380;28;20217;-65
2021/09/25 16:27:26;;;;;;;4.20;2.80;;;18.00;82.50;;;;;;10616628;28;20194;-65
2021/09/25 16:32:50;;;;;;;2.73;2.53;;;18.10;82.60;;;;;;10615263;28;20216;-66
2021/09/25 16:38:13;;;;;;;3.03;2.73;;;18.10;82.60;;;;;;10581071;28;20722;-66
2021/09/25 16:43:35;;;;;;;2.50;2.30;;;18.10;82.80;;;;;;10582559;28;20215;-67
2021/09/25 16:48:59;;;;;;;4.23;2.50;;;18.10;82.80;;;;;;10566692;28;20183;-67
2021/09/25 16:54:21;;;;;;;3.80;2.50;;;18.10;82.70;;;;;;10581972;28;20692;-66
2021/09/25 16:59:44;;;;;;;4.57;2.87;;;18.10;82.80;;;;;;10578191;28;20691;-66
2021/09/25 17:05:09;;;;;;;2.97;2.50;;;18.10;82.80;;;;;;10582080;27;20187;-66
2021/09/25 17:10:31;;;;;;;2.90;2.60;;;18.10;82.90;;;;;;10605355;27;20214;-67
2021/09/25 17:15:53;;;;;;;2.80;2.50;;;18.10;82.90;;;;;;10623161;27;20570;-65
2021/09/25 17:21:16;;;;;;;3.17;2.80;;;18.10;83.00;;;;;;10606389;27;20427;-66
2021/09/25 17:26:39;;;;;;;3.23;2.90;;;18.50;81.50;;;;;;10621875;27;20202;-66
2021/09/25 17:32:01;;;;;;;3.10;2.27;;;18.30;82.00;;;;;;10622105;27;20215;-66
2021/09/25 17:37:24;;;;;;;3.60;2.50;;;18.30;82.60;;;;;;10622649;27;20202;-65
2021/09/25 17:42:47;;;;;;;3.60;2.67;;;18.20;83.00;;;;;;10621212;27;20211;-66
2021/09/25 17:48:09;;;;;;;6.07;2.57;;;18.20;83.20;;;;;;10580594;28;20199;-65
2021/09/25 17:53:33;;;;;;;3.17;2.40;;;18.20;83.50;;;;;;10590462;27;20218;-65
2021/09/25 17:58:55;;;;;;;2.93;2.27;;;18.20;83.70;;;;;;10597387;27;20199;-65
2021/09/25 18:04:19;;;;;;;3.03;2.47;;;18.20;83.80;;;;;;10616243;27;20715;-64
2021/09/25 18:09:42;;;;;;;5.30;2.90;;;18.20;83.80;;;;;;10614340;27;20510;-65
2021/09/25 18:15:06;;;;;;;3.70;2.70;;;18.30;83.80;;;;;;10613907;27;20433;-65
2021/09/25 18:20:28;;;;;;;3.83;2.53;;;18.50;82.40;;;;;;10603674;27;20595;-64
2021/09/25 18:25:52;;;;;;;4.63;2.40;;;18.40;82.70;;;;;;10572904;28;20198;-62
2021/09/25 18:31:14;;;;;;;3.27;2.50;;;18.30;83.00;;;;;;10571666;28;20226;-65
2021/09/25 18:36:37;;;;;;;3.63;2.37;;;18.20;83.00;;;;;;10581371;27;20584;-64
2021/09/25 18:42:00;;;;;;;3.23;2.40;;;18.20;83.00;;;;;;10570776;28;20218;-63
2021/09/25 18:47:26;;;;;;;3.77;2.30;;;18.20;83.00;;;;;;10611115;27;20198;-64
2021/09/25 18:52:49;;;;;;;3.93;2.40;;;18.20;83.00;;;;;;10604050;27;20218;-66
2021/09/25 18:58:15;;;;;;;2.60;2.40;;;18.20;83.00;;;;;;10600444;27;20199;-66
2021/09/25 19:03:37;;;;;;;2.50;2.27;;;18.20;83.10;;;;;;10600485;27;20214;-65
2021/09/25 19:09:00;;;;;;;2.63;2.43;;;18.20;83.10;;;;;;10600609;27;20197;-66
2021/09/25 19:14:24;;;;;;;2.70;2.50;;;18.10;83.00;;;;;;10609917;27;20294;-65
2021/09/25 19:19:47;;;;;;;3.50;2.93;;;18.20;83.00;;;;;;10571731;27;20219;-65
2021/09/25 19:25:10;;;;;;;3.73;2.33;;;18.20;83.10;;;;;;10604836;27;20191;-66
2021/09/25 19:30:33;;;;;;;4.10;2.60;;;18.10;83.50;;;;;;10574418;27;20684;-67
2021/09/25 19:35:56;;;;;;;2.60;2.30;;;18.20;83.00;;;;;;10576857;27;20193;-65
2021/09/25 19:41:18;;;;;;;2.60;2.40;;;18.20;83.00;;;;;;10600538;27;20215;-65
2021/09/25 19:46:42;;;;;;;2.77;2.43;;;18.10;82.90;;;;;;10588601;27;20191;-65
2021/09/25 19:52:05;;;;;;;3.47;2.90;;;18.10;82.90;;;;;;10578835;27;20223;-66
2021/09/25 19:57:27;;;;;;;3.73;3.07;;;18.10;82.80;;;;;;10574796;28;20187;-67
2021/09/25 20:02:51;;;;;;;2.53;2.33;;;18.10;83.40;;;;;;10573496;27;20222;-65
2021/09/25 20:08:13;;;;;;;2.77;2.50;;;18.10;82.80;;;;;;10614883;27;20194;-66
2021/09/25 20:13:37;;;;;;;2.53;2.33;;;18.10;82.70;;;;;;10572777;28;20210;-66
2021/09/25 20:19:01;;;;;;;2.53;2.33;;;18.10;82.70;;;;;;10602461;27;20190;-66
2021/09/25 20:24:23;;;;;;;3.03;2.67;;;18.20;82.70;;;;;;10615386;28;20192;-67
2021/09/25 20:29:45;;;;;;;2.90;2.60;;;18.10;82.70;;;;;;10605389;28;20217;-65
2021/09/25 20:35:10;;;;;;;3.83;2.83;;;18.10;82.70;;;;;;10623256;27;20232;-67
2021/09/25 20:40:33;;;;;;;2.87;2.67;;;18.20;82.70;;;;;;10595434;27;20725;-67
2021/09/25 20:45:55;;;;;;;3.23;2.50;;;18.10;82.70;;;;;;10620236;27;20187;-66
2021/09/25 20:51:19;;;;;;;2.67;2.47;;;18.10;82.60;;;;;;10595703;27;20225;-66
2021/09/25 20:56:41;;;;;;;2.73;2.53;;;18.20;82.70;;;;;;10591298;27;20190;-66
2021/09/25 21:02:04;;;;;;;3.07;2.47;;;18.10;82.60;;;;;;10623413;27;21050;-66
2021/09/25 21:07:27;;;;;;;2.90;2.47;;;18.10;82.60;;;;;;10624802;27;20198;-65
2021/09/25 21:12:50;;;;;;;2.90;2.50;;;18.10;82.60;;;;;;10593872;27;20225;-66
2021/09/25 21:18:12;;;;;;;2.97;2.40;;;18.20;82.60;;;;;;10621384;27;20290;-65
2021/09/25 21:23:37;;;;;;;2.47;2.27;;;18.10;82.60;;;;;;10610531;27;20226;-66
2021/09/25 21:28:59;;;;;;;2.77;2.53;;;18.10;82.50;;;;;;10617022;22;20318;-70
2021/09/25 21:34:21;;;;;;;2.90;2.60;;;18.10;82.50;;;;;;10523398;28;20222;-71
2021/09/25 21:39:45;;;;;;;2.50;2.30;;;18.20;82.50;;;;;;10512478;28;20216;-70
2021/09/25 21:45:08;;;;;;;2.67;2.47;;;18.10;82.50;;;;;;10471026;28;20702;-70
2021/09/25 21:50:30;;;;;;;4.47;2.73;;;18.10;82.50;;;;;;10468022;28;20219;-69
2021/09/25 21:55:54;;;;;;;2.63;2.40;;;18.10;82.50;;;;;;10492864;28;20223;-70
2021/09/25 22:01:20;;;;;;;3.00;2.70;;;18.10;82.50;;;;;;10496626;28;20231;-70
2021/09/25 22:06:43;;;;;;;2.90;2.60;;;18.10;82.50;;;;;;10496884;28;20204;-70
2021/09/25 22:12:07;;;;;;;2.80;2.60;;;18.10;82.50;;;;;;10496609;28;20231;-70
2021/09/25 22:17:29;;;;;;;2.40;2.20;;;18.10;82.50;;;;;;10498086;28;20197;-68
2021/09/25 22:22:51;;;;;;;2.53;2.33;;;18.10;82.50;;;;;;10496155;28;20212;-70
2021/09/25 22:28:16;;;;;;;2.43;2.23;;;18.10;82.50;;;;;;10492041;28;20636;-71
2021/09/25 22:33:39;;;;;;;2.57;2.30;;;18.10;82.50;;;;;;10495461;28;20204;-71
2021/09/25 22:39:01;;;;;;;2.93;2.67;;;18.10;82.40;;;;;;10488335;28;20224;-71
2021/09/25 22:44:25;;;;;;;2.70;2.50;;;18.10;82.50;;;;;;10459444;28;20197;-71
2021/09/25 22:49:47;;;;;;;3.60;2.40;;;18.10;82.40;;;;;;10461709;28;20205;-70
2021/09/25 22:55:10;;;;;;;3.53;2.83;;;18.20;82.50;;;;;;10470612;28;20710;-70
2021/09/25 23:00:34;;;;;;;2.47;2.27;;;18.10;82.40;;;;;;10488738;28;20244;-70
2021/09/25 23:05:56;;;;;;;2.77;2.30;;;18.20;82.50;;;;;;10487064;28;20266;-70
2021/09/25 23:11:19;;;;;;;2.73;2.53;;;18.20;82.50;;;;;;10484482;28;20217;-70
2021/09/25 23:16:42;;;;;;;2.97;2.67;;;18.10;82.40;;;;;;10457072;28;20196;-70
2021/09/25 23:22:04;;;;;;;2.83;2.50;;;18.10;82.40;;;;;;10466385;28;20217;-70
2021/09/25 23:27:27;;;;;;;3.37;2.10;;;18.10;82.40;;;;;;10487206;28;20205;-67
2021/09/25 23:32:50;;;;;;;2.70;2.50;;;18.20;82.50;;;;;;10484090;28;20215;-70
2021/09/25 23:38:12;;;;;;;2.93;2.63;;;18.10;82.40;;;;;;10476731;28;20263;-70
2021/09/25 23:43:34;;;;;;;2.83;2.53;;;18.20;82.50;;;;;;10453822;28;20196;-70
2021/09/25 23:48:58;;;;;;;2.90;2.70;;;18.10;82.40;;;;;;10479434;28;20219;-70
2021/09/25 23:54:20;;;;;;;2.73;2.47;;;18.10;82.40;;;;;;10491540;28;20591;-70
2021/09/25 23:59:42;;;;;;;3.97;2.50;;;18.10;82.40;;;;;;10494859;28;20220;-70
